< < Back
Terminal Aerodrome Forecast


Current Version              Previous Versions:   1  2  3  4  5  6  7  8  9  

Terminal Aerodrome Forecast

828
FTUS42 KTAE 230500
TAFABY
TAF
KABY 230527Z 2306/2406 00000KT P6SM SKC
     FM231600 30006KT P6SM SCT050 SCT250
     FM240300 00000KT P6SM SCT250=

Latest METAR

849
SAUS70 KWBC 231500 RRB
MTRABY
METAR KABY 231453Z VRB03KT 10SM CLR 32/24 A3001 RMK AO2 SLP161 T03220239
58001


USA.gov is the U.S. government's official web portal to all federal, state and local government web resources and services.